KOQT  Oak Ridge Airport

Add Bookmark

Tennessee, United States

Status
Operational
Latitude Longitude
36° 1' 12" N 84° 13' 48" W
36.020000 -84.230000
Local (DST -4) UTC (GMT -5)
Nov 23, 2014 09:31 Nov 24, 2014 02:31
Sunrise-Sunset Local UTC
Begin Civil Twilight 06:53 11:53
Sunrise 07:20 12:20
Sunset 05:26 22:26
End Civil Twilight 05:53 22:53

Current Weather

METAR Observed VFR
KOQT 240153Z AUTO 00000KT 6SM BR BKN033 OVC041 12/12 A2958 Mon, Nov 24, 2014 @ 01:53 UTC
(38 Minutes ago)
Visual Flight Rules
Wind Visibility Clouds Conditions
Calm 6 statute miles
  • Broken at 3,300' AGL
  • Overcast at 4,100' AGL
  • Mist
Temperatures Readings Precipitation
Current Temp 12°C (54°F)
Dewpoint 12°C (54°F)
Humidity 100%
Altimeter 29.58"Hg
Sea Level Pressure 1001.6mb
Field Elevation 908.79'
None Recorded

Additional weather within a 50nm radius of KOQT

Map ICAO Location
KTYS 17nm S (137°)
KGKT 35.4nm E (106°)
KMMI 40.6nm S (204°)
KCSV 41.7nm W (265°)
KMOR 42.5nm E (077°)
1A6 42.7nm N (034°)

24 Hour Weather History

Loading
-

24 Hour Weather Graphs

Loading
-

CheckWX.com is intended as a tool to help pilots better visualize weather data. It is not intended as a substitute for an official weather briefing obtained from a Flight Service Station. CheckWX.com does not meet the FAA requirements for an official pre-flight weather briefing. Therefore, it's important that pilots still call and obtain an official FSS pre-flight weather briefing.